sensor_id;sensor_type;location;lat;lon;timestamp;P1;durP1;ratioP1;P2;durP2;ratioP2
23310;SDS011;11828;51.508;18.118;2023-04-03T00:00:32;222.57;;;69.05;;
23310;SDS011;11828;51.508;18.118;2023-04-03T00:03:14;232.15;;;71.30;;
23310;SDS011;11828;51.508;18.118;2023-04-03T00:05:41;223.05;;;68.68;;
23310;SDS011;11828;51.508;18.118;2023-04-03T00:08:07;226.98;;;69.10;;
23310;SDS011;11828;51.508;18.118;2023-04-03T00:10:35;224.75;;;67.72;;
23310;SDS011;11828;51.508;18.118;2023-04-03T00:13:03;221.73;;;69.05;;
23310;SDS011;11828;51.508;18.118;2023-04-03T00:15:30;215.95;;;69.57;;
23310;SDS011;11828;51.508;18.118;2023-04-03T00:17:57;218.25;;;68.80;;
23310;SDS011;11828;51.508;18.118;2023-04-03T00:20:23;233.75;;;71.28;;
23310;SDS011;11828;51.508;18.118;2023-04-03T00:22:50;234.82;;;71.20;;
23310;SDS011;11828;51.508;18.118;2023-04-03T00:25:16;219.02;;;68.68;;
23310;SDS011;11828;51.508;18.118;2023-04-03T00:27:42;223.70;;;68.50;;
23310;SDS011;11828;51.508;18.118;2023-04-03T00:30:09;215.70;;;69.80;;
23310;SDS011;11828;51.508;18.118;2023-04-03T00:32:40;224.55;;;73.38;;
23310;SDS011;11828;51.508;18.118;2023-04-03T00:35:06;223.55;;;66.78;;
23310;SDS011;11828;51.508;18.118;2023-04-03T00:37:33;223.45;;;68.35;;
23310;SDS011;11828;51.508;18.118;2023-04-03T00:39:59;226.65;;;68.65;;
23310;SDS011;11828;51.508;18.118;2023-04-03T00:42:26;235.70;;;68.40;;
23310;SDS011;11828;51.508;18.118;2023-04-03T00:47:22;216.52;;;68.72;;
23310;SDS011;11828;51.508;18.118;2023-04-03T00:49:49;213.88;;;69.03;;
23310;SDS011;11828;51.508;18.118;2023-04-03T00:52:18;217.32;;;68.43;;
23310;SDS011;11828;51.508;18.118;2023-04-03T00:54:47;214.80;;;69.63;;
23310;SDS011;11828;51.508;18.118;2023-04-03T00:57:16;227.65;;;68.70;;
23310;SDS011;11828;51.508;18.118;2023-04-03T00:59:43;214.82;;;68.28;;
23310;SDS011;11828;51.508;18.118;2023-04-03T01:02:14;222.40;;;68.97;;
23310;SDS011;11828;51.508;18.118;2023-04-03T01:04:41;218.48;;;69.95;;
23310;SDS011;11828;51.508;18.118;2023-04-03T01:07:10;219.52;;;69.90;;
23310;SDS011;11828;51.508;18.118;2023-04-03T01:10:05;213.77;;;68.57;;
23310;SDS011;11828;51.508;18.118;2023-04-03T01:12:36;217.15;;;69.13;;
23310;SDS011;11828;51.508;18.118;2023-04-03T01:15:09;245.13;;;70.70;;
23310;SDS011;11828;51.508;18.118;2023-04-03T01:17:49;216.85;;;69.40;;
23310;SDS011;11828;51.508;18.118;2023-04-03T01:25:33;218.80;;;69.25;;
23310;SDS011;11828;51.508;18.118;2023-04-03T01:28:20;207.63;;;66.90;;
23310;SDS011;11828;51.508;18.118;2023-04-03T01:33:42;207.75;;;66.78;;
23310;SDS011;11828;51.508;18.118;2023-04-03T01:36:09;213.63;;;67.43;;
23310;SDS011;11828;51.508;18.118;2023-04-03T01:38:40;214.52;;;67.72;;
23310;SDS011;11828;51.508;18.118;2023-04-03T01:41:07;231.73;;;70.43;;
23310;SDS011;11828;51.508;18.118;2023-04-03T01:43:33;214.57;;;68.72;;
23310;SDS011;11828;51.508;18.118;2023-04-03T01:45:59;211.65;;;67.40;;
23310;SDS011;11828;51.508;18.118;2023-04-03T01:48:25;213.07;;;68.40;;
23310;SDS011;11828;51.508;18.118;2023-04-03T01:50:51;235.40;;;71.90;;
23310;SDS011;11828;51.508;18.118;2023-04-03T01:53:18;214.98;;;67.80;;
23310;SDS011;11828;51.508;18.118;2023-04-03T01:55:44;215.85;;;68.72;;
23310;SDS011;11828;51.508;18.118;2023-04-03T01:58:10;219.00;;;67.75;;
23310;SDS011;11828;51.508;18.118;2023-04-03T02:00:36;209.63;;;68.20;;
23310;SDS011;11828;51.508;18.118;2023-04-03T02:03:03;212.00;;;67.75;;
23310;SDS011;11828;51.508;18.118;2023-04-03T02:05:29;215.02;;;67.80;;
23310;SDS011;11828;51.508;18.118;2023-04-03T02:07:55;203.80;;;65.90;;
23310;SDS011;11828;51.508;18.118;2023-04-03T02:10:21;219.57;;;66.95;;
23310;SDS011;11828;51.508;18.118;2023-04-03T02:12:47;209.52;;;66.55;;
23310;SDS011;11828;51.508;18.118;2023-04-03T02:15:13;216.43;;;70.32;;
23310;SDS011;11828;51.508;18.118;2023-04-03T02:17:40;226.45;;;69.88;;
23310;SDS011;11828;51.508;18.118;2023-04-03T02:20:06;211.52;;;67.55;;
23310;SDS011;11828;51.508;18.118;2023-04-03T02:22:33;165.57;;;84.82;;
23310;SDS011;11828;51.508;18.118;2023-04-03T02:24:59;153.43;;;67.78;;
23310;SDS011;11828;51.508;18.118;2023-04-03T02:27:26;208.20;;;66.75;;
23310;SDS011;11828;51.508;18.118;2023-04-03T02:29:53;213.32;;;67.30;;
23310;SDS011;11828;51.508;18.118;2023-04-03T02:32:19;159.48;;;77.05;;
23310;SDS011;11828;51.508;18.118;2023-04-03T02:34:45;210.05;;;67.60;;
23310;SDS011;11828;51.508;18.118;2023-04-03T02:37:11;227.38;;;70.25;;
23310;SDS011;11828;51.508;18.118;2023-04-03T02:39:37;235.30;;;70.05;;
23310;SDS011;11828;51.508;18.118;2023-04-03T02:42:04;210.57;;;65.95;;
23310;SDS011;11828;51.508;18.118;2023-04-03T02:44:30;206.52;;;66.53;;
23310;SDS011;11828;51.508;18.118;2023-04-03T02:46:56;210.23;;;66.00;;
23310;SDS011;11828;51.508;18.118;2023-04-03T02:49:22;211.73;;;68.07;;
23310;SDS011;11828;51.508;18.118;2023-04-03T02:51:48;211.38;;;66.60;;
23310;SDS011;11828;51.508;18.118;2023-04-03T02:54:16;211.82;;;66.82;;
23310;SDS011;11828;51.508;18.118;2023-04-03T02:56:42;208.35;;;66.28;;
23310;SDS011;11828;51.508;18.118;2023-04-03T02:59:08;221.73;;;69.60;;
23310;SDS011;11828;51.508;18.118;2023-04-03T03:01:35;208.70;;;65.50;;
23310;SDS011;11828;51.508;18.118;2023-04-03T03:04:01;214.93;;;67.22;;
23310;SDS011;11828;51.508;18.118;2023-04-03T03:06:27;213.65;;;68.95;;
23310;SDS011;11828;51.508;18.118;2023-04-03T03:08:53;206.02;;;66.13;;
23310;SDS011;11828;51.508;18.118;2023-04-03T03:11:20;223.23;;;69.28;;
23310;SDS011;11828;51.508;18.118;2023-04-03T03:13:46;210.10;;;67.50;;
23310;SDS011;11828;51.508;18.118;2023-04-03T03:16:12;209.75;;;67.13;;
23310;SDS011;11828;51.508;18.118;2023-04-03T03:18:38;210.20;;;66.68;;
23310;SDS011;11828;51.508;18.118;2023-04-03T03:21:05;207.32;;;65.43;;
23310;SDS011;11828;51.508;18.118;2023-04-03T03:23:31;206.75;;;66.60;;
23310;SDS011;11828;51.508;18.118;2023-04-03T03:25:59;207.02;;;67.45;;
23310;SDS011;11828;51.508;18.118;2023-04-03T03:28:28;211.95;;;66.75;;
23310;SDS011;11828;51.508;18.118;2023-04-03T03:30:56;213.93;;;67.63;;
23310;SDS011;11828;51.508;18.118;2023-04-03T03:33:25;208.43;;;67.65;;
23310;SDS011;11828;51.508;18.118;2023-04-03T03:35:52;206.90;;;67.72;;
23310;SDS011;11828;51.508;18.118;2023-04-03T03:38:19;212.05;;;68.75;;
23310;SDS011;11828;51.508;18.118;2023-04-03T03:40:49;203.93;;;66.80;;
23310;SDS011;11828;51.508;18.118;2023-04-03T03:43:16;202.20;;;66.32;;
23310;SDS011;11828;51.508;18.118;2023-04-03T03:45:43;202.85;;;67.65;;
23310;SDS011;11828;51.508;18.118;2023-04-03T03:48:10;199.07;;;67.90;;
23310;SDS011;11828;51.508;18.118;2023-04-03T03:50:37;200.05;;;66.60;;
23310;SDS011;11828;51.508;18.118;2023-04-03T03:53:03;202.65;;;67.45;;
23310;SDS011;11828;51.508;18.118;2023-04-03T03:55:29;202.52;;;67.20;;
23310;SDS011;11828;51.508;18.118;2023-04-03T03:57:55;202.65;;;67.78;;
23310;SDS011;11828;51.508;18.118;2023-04-03T04:00:22;236.50;;;74.22;;
23310;SDS011;11828;51.508;18.118;2023-04-03T04:02:48;199.73;;;67.65;;
23310;SDS011;11828;51.508;18.118;2023-04-03T04:05:15;202.80;;;68.97;;
23310;SDS011;11828;51.508;18.118;2023-04-03T04:07:41;205.48;;;68.50;;
23310;SDS011;11828;51.508;18.118;2023-04-03T04:10:07;207.35;;;72.18;;
23310;SDS011;11828;51.508;18.118;2023-04-03T04:12:34;210.73;;;69.50;;
23310;SDS011;11828;51.508;18.118;2023-04-03T04:15:01;247.90;;;76.78;;
23310;SDS011;11828;51.508;18.118;2023-04-03T04:17:28;218.38;;;70.05;;
23310;SDS011;11828;51.508;18.118;2023-04-03T04:19:54;221.88;;;68.63;;
23310;SDS011;11828;51.508;18.118;2023-04-03T04:22:21;221.20;;;68.90;;
23310;SDS011;11828;51.508;18.118;2023-04-03T04:24:47;206.80;;;67.40;;
23310;SDS011;11828;51.508;18.118;2023-04-03T04:27:13;203.93;;;66.60;;
23310;SDS011;11828;51.508;18.118;2023-04-03T04:29:41;203.20;;;66.18;;
23310;SDS011;11828;51.508;18.118;2023-04-03T04:32:07;205.63;;;67.10;;
23310;SDS011;11828;51.508;18.118;2023-04-03T04:34:34;200.77;;;67.13;;
23310;SDS011;11828;51.508;18.118;2023-04-03T04:37:00;209.82;;;72.15;;
23310;SDS011;11828;51.508;18.118;2023-04-03T04:39:27;207.18;;;70.05;;
23310;SDS011;11828;51.508;18.118;2023-04-03T04:41:53;199.18;;;70.15;;
23310;SDS011;11828;51.508;18.118;2023-04-03T04:44:19;211.35;;;71.10;;
23310;SDS011;11828;51.508;18.118;2023-04-03T04:46:45;225.05;;;72.40;;
23310;SDS011;11828;51.508;18.118;2023-04-03T04:49:12;224.45;;;78.88;;
23310;SDS011;11828;51.508;18.118;2023-04-03T04:51:38;218.85;;;73.13;;
23310;SDS011;11828;51.508;18.118;2023-04-03T04:54:04;211.18;;;72.70;;
23310;SDS011;11828;51.508;18.118;2023-04-03T04:56:30;210.63;;;71.88;;
23310;SDS011;11828;51.508;18.118;2023-04-03T04:58:57;218.18;;;75.18;;
23310;SDS011;11828;51.508;18.118;2023-04-03T05:01:23;221.25;;;75.85;;
23310;SDS011;11828;51.508;18.118;2023-04-03T05:03:49;213.07;;;72.65;;
23310;SDS011;11828;51.508;18.118;2023-04-03T05:06:15;216.13;;;72.10;;
23310;SDS011;11828;51.508;18.118;2023-04-03T05:08:41;216.77;;;71.03;;
23310;SDS011;11828;51.508;18.118;2023-04-03T05:11:07;213.00;;;69.95;;
23310;SDS011;11828;51.508;18.118;2023-04-03T05:13:34;211.77;;;68.97;;
23310;SDS011;11828;51.508;18.118;2023-04-03T05:16:00;213.52;;;69.15;;
23310;SDS011;11828;51.508;18.118;2023-04-03T05:18:27;222.55;;;71.95;;
23310;SDS011;11828;51.508;18.118;2023-04-03T05:20:53;219.75;;;71.15;;
23310;SDS011;11828;51.508;18.118;2023-04-03T05:23:19;220.35;;;72.30;;
23310;SDS011;11828;51.508;18.118;2023-04-03T05:25:45;224.68;;;74.30;;
23310;SDS011;11828;51.508;18.118;2023-04-03T05:28:12;220.40;;;69.15;;
23310;SDS011;11828;51.508;18.118;2023-04-03T05:30:38;217.57;;;69.45;;
23310;SDS011;11828;51.508;18.118;2023-04-03T05:33:04;217.65;;;68.78;;
23310;SDS011;11828;51.508;18.118;2023-04-03T05:35:31;217.68;;;68.25;;
23310;SDS011;11828;51.508;18.118;2023-04-03T05:37:58;206.10;;;66.78;;
23310;SDS011;11828;51.508;18.118;2023-04-03T05:40:24;213.43;;;67.13;;
23310;SDS011;11828;51.508;18.118;2023-04-03T05:42:50;207.00;;;67.43;;
23310;SDS011;11828;51.508;18.118;2023-04-03T05:45:16;208.77;;;71.18;;
23310;SDS011;11828;51.508;18.118;2023-04-03T05:47:43;206.02;;;72.45;;
23310;SDS011;11828;51.508;18.118;2023-04-03T05:50:09;224.48;;;67.95;;
23310;SDS011;11828;51.508;18.118;2023-04-03T05:52:36;211.85;;;67.65;;
23310;SDS011;11828;51.508;18.118;2023-04-03T05:55:06;220.32;;;68.28;;
23310;SDS011;11828;51.508;18.118;2023-04-03T05:57:33;212.50;;;76.40;;
23310;SDS011;11828;51.508;18.118;2023-04-03T05:59:59;218.15;;;72.43;;
23310;SDS011;11828;51.508;18.118;2023-04-03T06:02:25;225.57;;;73.60;;
23310;SDS011;11828;51.508;18.118;2023-04-03T06:04:52;215.27;;;72.70;;
23310;SDS011;11828;51.508;18.118;2023-04-03T06:07:20;216.07;;;70.05;;
23310;SDS011;11828;51.508;18.118;2023-04-03T06:09:49;224.48;;;85.80;;
23310;SDS011;11828;51.508;18.118;2023-04-03T06:12:19;223.20;;;94.57;;
23310;SDS011;11828;51.508;18.118;2023-04-03T06:14:46;209.05;;;65.50;;
23310;SDS011;11828;51.508;18.118;2023-04-03T06:17:13;203.17;;;65.77;;
23310;SDS011;11828;51.508;18.118;2023-04-03T06:19:41;204.20;;;71.00;;
23310;SDS011;11828;51.508;18.118;2023-04-03T06:22:07;211.95;;;66.43;;
23310;SDS011;11828;51.508;18.118;2023-04-03T06:24:33;202.07;;;66.25;;
23310;SDS011;11828;51.508;18.118;2023-04-03T06:27:00;211.40;;;64.05;;
23310;SDS011;11828;51.508;18.118;2023-04-03T06:29:27;197.00;;;66.78;;
23310;SDS011;11828;51.508;18.118;2023-04-03T06:31:53;200.80;;;63.90;;
23310;SDS011;11828;51.508;18.118;2023-04-03T06:34:19;215.55;;;65.40;;
23310;SDS011;11828;51.508;18.118;2023-04-03T06:36:46;218.68;;;64.30;;
23310;SDS011;11828;51.508;18.118;2023-04-03T06:39:18;221.50;;;65.88;;
23310;SDS011;11828;51.508;18.118;2023-04-03T06:41:47;220.50;;;65.55;;
23310;SDS011;11828;51.508;18.118;2023-04-03T06:44:15;223.20;;;65.15;;
23310;SDS011;11828;51.508;18.118;2023-04-03T06:46:42;235.15;;;67.35;;
23310;SDS011;11828;51.508;18.118;2023-04-03T06:49:09;227.65;;;67.40;;
23310;SDS011;11828;51.508;18.118;2023-04-03T06:51:36;231.18;;;65.90;;
23310;SDS011;11828;51.508;18.118;2023-04-03T06:54:02;250.75;;;67.20;;
23310;SDS011;11828;51.508;18.118;2023-04-03T06:56:30;240.27;;;66.55;;
23310;SDS011;11828;51.508;18.118;2023-04-03T06:58:56;233.43;;;65.90;;
23310;SDS011;11828;51.508;18.118;2023-04-03T07:01:23;240.82;;;66.50;;
23310;SDS011;11828;51.508;18.118;2023-04-03T07:03:52;235.77;;;66.15;;
23310;SDS011;11828;51.508;18.118;2023-04-03T07:06:20;227.43;;;67.18;;
23310;SDS011;11828;51.508;18.118;2023-04-03T07:08:46;245.13;;;67.78;;
23310;SDS011;11828;51.508;18.118;2023-04-03T07:11:15;246.60;;;68.03;;
23310;SDS011;11828;51.508;18.118;2023-04-03T07:13:42;245.55;;;68.15;;
23310;SDS011;11828;51.508;18.118;2023-04-03T07:16:09;251.30;;;69.07;;
23310;SDS011;11828;51.508;18.118;2023-04-03T07:18:36;262.65;;;72.20;;
23310;SDS011;11828;51.508;18.118;2023-04-03T07:21:03;257.77;;;71.47;;
23310;SDS011;11828;51.508;18.118;2023-04-03T07:23:29;267.00;;;72.72;;
23310;SDS011;11828;51.508;18.118;2023-04-03T07:25:57;261.70;;;74.45;;
23310;SDS011;11828;51.508;18.118;2023-04-03T07:28:24;265.90;;;75.68;;
23310;SDS011;11828;51.508;18.118;2023-04-03T07:30:52;262.73;;;77.55;;
23310;SDS011;11828;51.508;18.118;2023-04-03T07:33:24;261.42;;;75.18;;
23310;SDS011;11828;51.508;18.118;2023-04-03T07:35:51;267.67;;;77.57;;
23310;SDS011;11828;51.508;18.118;2023-04-03T07:38:17;277.35;;;78.40;;
23310;SDS011;11828;51.508;18.118;2023-04-03T07:40:47;274.77;;;77.57;;
23310;SDS011;11828;51.508;18.118;2023-04-03T07:43:15;275.80;;;79.28;;
23310;SDS011;11828;51.508;18.118;2023-04-03T07:45:43;267.27;;;77.40;;
23310;SDS011;11828;51.508;18.118;2023-04-03T07:48:10;262.65;;;75.93;;
23310;SDS011;11828;51.508;18.118;2023-04-03T07:50:41;258.50;;;76.55;;
23310;SDS011;11828;51.508;18.118;2023-04-03T07:53:07;270.25;;;76.32;;
23310;SDS011;11828;51.508;18.118;2023-04-03T07:55:34;264.52;;;75.88;;
23310;SDS011;11828;51.508;18.118;2023-04-03T07:58:05;262.95;;;75.15;;
23310;SDS011;11828;51.508;18.118;2023-04-03T08:00:32;269.88;;;77.13;;
23310;SDS011;11828;51.508;18.118;2023-04-03T08:02:58;266.38;;;77.43;;
23310;SDS011;11828;51.508;18.118;2023-04-03T08:05:24;281.35;;;82.30;;
23310;SDS011;11828;51.508;18.118;2023-04-03T08:07:50;277.02;;;79.68;;
23310;SDS011;11828;51.508;18.118;2023-04-03T08:10:16;269.98;;;79.40;;
23310;SDS011;11828;51.508;18.118;2023-04-03T08:12:45;277.27;;;77.70;;
23310;SDS011;11828;51.508;18.118;2023-04-03T08:15:12;287.40;;;80.30;;
23310;SDS011;11828;51.508;18.118;2023-04-03T08:17:38;274.77;;;79.07;;
23310;SDS011;11828;51.508;18.118;2023-04-03T08:20:05;261.85;;;75.45;;
23310;SDS011;11828;51.508;18.118;2023-04-03T08:22:33;265.08;;;75.38;;
23310;SDS011;11828;51.508;18.118;2023-04-03T08:25:00;263.23;;;75.45;;
23310;SDS011;11828;51.508;18.118;2023-04-03T08:27:27;272.02;;;74.65;;
23310;SDS011;11828;51.508;18.118;2023-04-03T08:29:54;279.60;;;79.95;;
23310;SDS011;11828;51.508;18.118;2023-04-03T08:32:22;239.73;;;72.40;;
23310;SDS011;11828;51.508;18.118;2023-04-03T08:34:49;232.07;;;70.55;;
23310;SDS011;11828;51.508;18.118;2023-04-03T08:37:15;240.77;;;70.93;;
23310;SDS011;11828;51.508;18.118;2023-04-03T08:39:43;220.32;;;66.97;;
23310;SDS011;11828;51.508;18.118;2023-04-03T08:42:14;235.57;;;71.55;;
23310;SDS011;11828;51.508;18.118;2023-04-03T08:44:55;227.25;;;66.53;;
23310;SDS011;11828;51.508;18.118;2023-04-03T08:47:40;224.75;;;66.22;;
23310;SDS011;11828;51.508;18.118;2023-04-03T08:50:17;250.45;;;78.00;;
23310;SDS011;11828;51.508;18.118;2023-04-03T08:52:51;237.02;;;70.38;;
23310;SDS011;11828;51.508;18.118;2023-04-03T08:55:23;233.32;;;67.50;;
23310;SDS011;11828;51.508;18.118;2023-04-03T09:00:55;274.02;;;87.05;;
23310;SDS011;11828;51.508;18.118;2023-04-03T09:03:33;276.13;;;103.55;;
23310;SDS011;11828;51.508;18.118;2023-04-03T09:06:14;237.35;;;71.03;;
23310;SDS011;11828;51.508;18.118;2023-04-03T09:08:50;233.73;;;67.95;;
23310;SDS011;11828;51.508;18.118;2023-04-03T09:17:46;232.88;;;67.20;;
23310;SDS011;11828;51.508;18.118;2023-04-03T09:20:30;245.38;;;74.20;;
23310;SDS011;11828;51.508;18.118;2023-04-03T09:23:08;243.48;;;71.63;;
23310;SDS011;11828;51.508;18.118;2023-04-03T09:26:16;239.73;;;70.82;;
23310;SDS011;11828;51.508;18.118;2023-04-03T09:29:13;229.52;;;68.60;;
23310;SDS011;11828;51.508;18.118;2023-04-03T09:31:46;234.75;;;70.28;;
23310;SDS011;11828;51.508;18.118;2023-04-03T09:34:23;269.10;;;111.13;;
23310;SDS011;11828;51.508;18.118;2023-04-03T09:37:08;244.65;;;80.45;;
23310;SDS011;11828;51.508;18.118;2023-04-03T09:39:51;248.52;;;92.15;;
23310;SDS011;11828;51.508;18.118;2023-04-03T09:42:23;251.05;;;78.90;;
23310;SDS011;11828;51.508;18.118;2023-04-03T09:45:01;288.23;;;149.88;;
23310;SDS011;11828;51.508;18.118;2023-04-03T09:47:31;256.00;;;91.68;;
23310;SDS011;11828;51.508;18.118;2023-04-03T09:52:46;253.55;;;74.95;;
23310;SDS011;11828;51.508;18.118;2023-04-03T09:55:25;254.77;;;76.88;;
23310;SDS011;11828;51.508;18.118;2023-04-03T09:57:58;247.30;;;73.88;;
23310;SDS011;11828;51.508;18.118;2023-04-03T10:00:59;261.83;;;76.30;;
23310;SDS011;11828;51.508;18.118;2023-04-03T10:03:31;251.70;;;74.57;;
23310;SDS011;11828;51.508;18.118;2023-04-03T10:06:01;255.07;;;73.90;;
23310;SDS011;11828;51.508;18.118;2023-04-03T10:08:31;257.67;;;74.43;;
23310;SDS011;11828;51.508;18.118;2023-04-03T10:13:58;256.75;;;74.95;;
23310;SDS011;11828;51.508;18.118;2023-04-03T10:17:02;256.42;;;74.90;;
23310;SDS011;11828;51.508;18.118;2023-04-03T10:28:34;261.95;;;75.85;;
23310;SDS011;11828;51.508;18.118;2023-04-03T10:31:15;263.05;;;77.82;;
23310;SDS011;11828;51.508;18.118;2023-04-03T10:34:23;256.00;;;75.28;;
23310;SDS011;11828;51.508;18.118;2023-04-03T10:48:16;255.68;;;74.63;;
23310;SDS011;11828;51.508;18.118;2023-04-03T10:56:50;257.25;;;73.90;;
23310;SDS011;11828;51.508;18.118;2023-04-03T10:59:37;259.55;;;75.25;;
23310;SDS011;11828;51.508;18.118;2023-04-03T11:03:22;253.60;;;75.47;;
23310;SDS011;11828;51.508;18.118;2023-04-03T11:05:51;248.10;;;73.03;;
23310;SDS011;11828;51.508;18.118;2023-04-03T11:08:26;264.88;;;78.22;;
23310;SDS011;11828;51.508;18.118;2023-04-03T11:11:19;250.68;;;73.68;;
23310;SDS011;11828;51.508;18.118;2023-04-03T11:16:30;268.90;;;79.57;;
23310;SDS011;11828;51.508;18.118;2023-04-03T11:19:03;262.92;;;78.65;;
23310;SDS011;11828;51.508;18.118;2023-04-03T11:21:39;258.90;;;78.45;;
23310;SDS011;11828;51.508;18.118;2023-04-03T11:24:21;252.70;;;74.85;;
23310;SDS011;11828;51.508;18.118;2023-04-03T11:26:54;247.57;;;73.47;;
23310;SDS011;11828;51.508;18.118;2023-04-03T11:29:23;247.55;;;74.00;;
23310;SDS011;11828;51.508;18.118;2023-04-03T11:34:46;248.85;;;74.28;;
23310;SDS011;11828;51.508;18.118;2023-04-03T11:37:24;243.38;;;73.40;;
23310;SDS011;11828;51.508;18.118;2023-04-03T11:40:08;251.38;;;73.50;;
23310;SDS011;11828;51.508;18.118;2023-04-03T11:50:45;258.98;;;77.50;;
23310;SDS011;11828;51.508;18.118;2023-04-03T11:58:33;275.60;;;84.07;;
23310;SDS011;11828;51.508;18.118;2023-04-03T12:01:05;264.35;;;80.03;;
23310;SDS011;11828;51.508;18.118;2023-04-03T12:03:55;290.58;;;81.57;;
23310;SDS011;11828;51.508;18.118;2023-04-03T12:09:01;260.17;;;77.07;;
23310;SDS011;11828;51.508;18.118;2023-04-03T12:11:29;261.40;;;77.45;;
23310;SDS011;11828;51.508;18.118;2023-04-03T12:16:24;262.63;;;76.85;;
23310;SDS011;11828;51.508;18.118;2023-04-03T12:24:27;260.75;;;78.60;;
23310;SDS011;11828;51.508;18.118;2023-04-03T12:32:36;258.17;;;75.13;;
23310;SDS011;11828;51.508;18.118;2023-04-03T12:47:26;251.85;;;73.97;;
23310;SDS011;11828;51.508;18.118;2023-04-03T12:49:58;244.65;;;72.85;;
23310;SDS011;11828;51.508;18.118;2023-04-03T12:55:17;265.83;;;78.72;;
23310;SDS011;11828;51.508;18.118;2023-04-03T12:57:45;267.30;;;80.97;;
23310;SDS011;11828;51.508;18.118;2023-04-03T13:00:45;269.98;;;81.15;;
23310;SDS011;11828;51.508;18.118;2023-04-03T13:03:05;266.17;;;81.28;;
23310;SDS011;11828;51.508;18.118;2023-04-03T13:05:47;270.00;;;84.00;;
23310;SDS011;11828;51.508;18.118;2023-04-03T13:08:13;269.15;;;82.82;;
23310;SDS011;11828;51.508;18.118;2023-04-03T13:10:47;274.55;;;83.40;;
23310;SDS011;11828;51.508;18.118;2023-04-03T13:13:27;261.02;;;78.20;;
23310;SDS011;11828;51.508;18.118;2023-04-03T13:15:55;262.75;;;78.40;;
23310;SDS011;11828;51.508;18.118;2023-04-03T13:18:32;255.45;;;75.38;;
23310;SDS011;11828;51.508;18.118;2023-04-03T13:23:40;260.80;;;76.00;;
23310;SDS011;11828;51.508;18.118;2023-04-03T13:26:11;255.52;;;73.13;;
23310;SDS011;11828;51.508;18.118;2023-04-03T13:28:38;252.98;;;73.57;;
23310;SDS011;11828;51.508;18.118;2023-04-03T13:36:34;239.13;;;69.85;;
23310;SDS011;11828;51.508;18.118;2023-04-03T13:41:40;243.38;;;70.60;;
23310;SDS011;11828;51.508;18.118;2023-04-03T13:46:48;243.23;;;70.10;;
23310;SDS011;11828;51.508;18.118;2023-04-03T13:52:24;247.02;;;69.80;;
23310;SDS011;11828;51.508;18.118;2023-04-03T14:03:43;253.02;;;95.88;;
23310;SDS011;11828;51.508;18.118;2023-04-03T14:06:20;262.38;;;73.50;;
23310;SDS011;11828;51.508;18.118;2023-04-03T14:08:47;251.55;;;83.43;;
23310;SDS011;11828;51.508;18.118;2023-04-03T14:11:15;240.82;;;70.10;;
23310;SDS011;11828;51.508;18.118;2023-04-03T14:13:47;239.68;;;86.15;;
23310;SDS011;11828;51.508;18.118;2023-04-03T14:16:18;220.63;;;69.75;;
23310;SDS011;11828;51.508;18.118;2023-04-03T14:18:48;230.40;;;89.15;;
23310;SDS011;11828;51.508;18.118;2023-04-03T14:21:15;250.55;;;101.95;;
23310;SDS011;11828;51.508;18.118;2023-04-03T14:23:44;230.60;;;67.80;;
23310;SDS011;11828;51.508;18.118;2023-04-03T14:26:12;233.80;;;68.90;;
23310;SDS011;11828;51.508;18.118;2023-04-03T14:28:47;226.48;;;68.32;;
23310;SDS011;11828;51.508;18.118;2023-04-03T14:31:17;232.18;;;78.63;;
23310;SDS011;11828;51.508;18.118;2023-04-03T14:33:44;235.77;;;67.30;;
23310;SDS011;11828;51.508;18.118;2023-04-03T14:36:12;233.85;;;66.93;;
23310;SDS011;11828;51.508;18.118;2023-04-03T14:38:59;233.15;;;67.03;;
23310;SDS011;11828;51.508;18.118;2023-04-03T14:41:26;233.85;;;69.65;;
23310;SDS011;11828;51.508;18.118;2023-04-03T14:43:53;241.52;;;111.95;;
23310;SDS011;11828;51.508;18.118;2023-04-03T14:46:29;267.17;;;137.75;;
23310;SDS011;11828;51.508;18.118;2023-04-03T14:49:03;245.07;;;107.95;;
23310;SDS011;11828;51.508;18.118;2023-04-03T14:51:39;293.60;;;188.32;;
23310;SDS011;11828;51.508;18.118;2023-04-03T14:54:09;255.73;;;134.35;;
23310;SDS011;11828;51.508;18.118;2023-04-03T14:56:44;252.55;;;95.70;;
23310;SDS011;11828;51.508;18.118;2023-04-03T14:59:12;221.35;;;78.82;;
23310;SDS011;11828;51.508;18.118;2023-04-03T15:01:39;278.85;;;161.80;;
23310;SDS011;11828;51.508;18.118;2023-04-03T15:04:13;228.82;;;76.57;;
23310;SDS011;11828;51.508;18.118;2023-04-03T15:06:44;224.82;;;87.03;;
23310;SDS011;11828;51.508;18.118;2023-04-03T15:11:53;220.63;;;75.00;;
23310;SDS011;11828;51.508;18.118;2023-04-03T15:14:20;225.43;;;91.32;;
23310;SDS011;11828;51.508;18.118;2023-04-03T15:16:48;244.55;;;83.40;;
23310;SDS011;11828;51.508;18.118;2023-04-03T15:19:14;230.88;;;75.78;;
23310;SDS011;11828;51.508;18.118;2023-04-03T15:21:40;239.82;;;71.78;;
23310;SDS011;11828;51.508;18.118;2023-04-03T15:24:08;237.23;;;71.20;;
23310;SDS011;11828;51.508;18.118;2023-04-03T15:26:35;246.68;;;74.30;;
23310;SDS011;11828;51.508;18.118;2023-04-03T15:29:03;235.82;;;73.18;;
23310;SDS011;11828;51.508;18.118;2023-04-03T15:31:30;231.20;;;74.45;;
23310;SDS011;11828;51.508;18.118;2023-04-03T15:33:57;198.73;;;77.15;;
23310;SDS011;11828;51.508;18.118;2023-04-03T15:36:23;244.05;;;74.53;;
23310;SDS011;11828;51.508;18.118;2023-04-03T15:38:49;225.27;;;74.25;;
23310;SDS011;11828;51.508;18.118;2023-04-03T15:41:15;221.15;;;74.43;;
23310;SDS011;11828;51.508;18.118;2023-04-03T15:43:42;186.40;;;73.45;;
23310;SDS011;11828;51.508;18.118;2023-04-03T15:46:08;147.07;;;67.93;;
23310;SDS011;11828;51.508;18.118;2023-04-03T15:48:35;159.02;;;71.57;;
23310;SDS011;11828;51.508;18.118;2023-04-03T15:51:01;163.65;;;72.05;;
23310;SDS011;11828;51.508;18.118;2023-04-03T15:53:28;168.32;;;70.65;;
23310;SDS011;11828;51.508;18.118;2023-04-03T15:55:54;188.45;;;72.00;;
23310;SDS011;11828;51.508;18.118;2023-04-03T15:58:21;169.32;;;71.63;;
23310;SDS011;11828;51.508;18.118;2023-04-03T16:00:47;211.07;;;76.18;;
23310;SDS011;11828;51.508;18.118;2023-04-03T16:03:17;214.63;;;76.25;;
23310;SDS011;11828;51.508;18.118;2023-04-03T16:05:45;209.55;;;74.00;;
23310;SDS011;11828;51.508;18.118;2023-04-03T16:08:13;212.60;;;71.97;;
23310;SDS011;11828;51.508;18.118;2023-04-03T16:10:40;233.07;;;73.18;;
23310;SDS011;11828;51.508;18.118;2023-04-03T16:13:06;198.70;;;74.97;;
23310;SDS011;11828;51.508;18.118;2023-04-03T16:15:32;214.93;;;75.40;;
23310;SDS011;11828;51.508;18.118;2023-04-03T16:18:00;195.77;;;74.10;;
23310;SDS011;11828;51.508;18.118;2023-04-03T16:20:26;171.82;;;69.32;;